createdAt,value
2023-01-06T00:02:43.293Z,36.8
2023-01-06T00:07:34.649Z,36.8
2023-01-06T00:12:58.712Z,36.8
2023-01-06T00:18:06.534Z,36.7
2023-01-06T00:23:12.747Z,36.6
2023-01-06T00:28:05.552Z,36.6
2023-01-06T00:33:13.485Z,36.5
2023-01-06T00:38:20.615Z,36.5
2023-01-06T00:42:58.309Z,36.4
2023-01-06T00:48:05.590Z,36.4
2023-01-06T00:53:21.733Z,36.4
2023-01-06T00:58:28.692Z,36.3
2023-01-06T01:03:37.320Z,36.3
2023-01-06T01:08:44.270Z,36.3
2023-01-06T01:18:43.799Z,36.1
2023-01-06T01:23:50.876Z,36.1
2023-01-06T01:29:14.239Z,36.1
2023-01-06T01:34:21.948Z,36.1
2023-01-06T01:39:29.600Z,36
2023-01-06T01:49:28.708Z,35.9
2023-01-06T01:54:35.569Z,35.9
2023-01-06T01:59:43.049Z,35.8
2023-01-06T02:04:52.414Z,35.8
2023-01-06T02:09:59.942Z,35.8
2023-01-06T02:14:51.535Z,35.7
2023-01-06T02:19:59.667Z,35.6
2023-01-06T02:25:06.698Z,35.6
2023-01-06T02:30:14.109Z,35.6
2023-01-06T02:35:21.626Z,35.5
2023-01-06T02:40:44.801Z,35.5
2023-01-06T02:45:36.802Z,35.4
2023-01-06T02:50:45.347Z,35.4
2023-01-06T03:00:44.252Z,35.3
2023-01-06T03:06:09.187Z,35.3
2023-01-06T03:11:00.493Z,35.3
2023-01-06T03:16:07.531Z,35.2
2023-01-06T03:21:16.467Z,35.1
2023-01-06T03:26:08.494Z,35.1
2023-01-06T03:36:05.251Z,35
2023-01-06T03:46:16.679Z,35
2023-01-06T03:51:39.742Z,34.9
2023-01-06T03:56:47.931Z,34.9
2023-01-06T04:01:24.683Z,34.9
2023-01-06T04:06:16.176Z,34.8
2023-01-06T04:16:31.846Z,34.8
2023-01-06T04:21:38.865Z,34.7
2023-01-06T04:26:45.637Z,34.7
2023-01-06T04:31:54.279Z,34.6
2023-01-06T04:37:01.879Z,34.6
2023-01-06T04:42:26.442Z,34.6
2023-01-06T04:47:50.697Z,34.5
2023-01-06T04:53:13.044Z,34.4
2023-01-06T04:58:38.924Z,34.4
2023-01-06T05:09:19.715Z,34.3
2023-01-06T05:14:41.649Z,34.3
2023-01-06T05:19:34.524Z,34.3
2023-01-06T05:24:26.197Z,34.3
2023-01-06T05:44:24.018Z,34.2
2023-01-06T05:49:30.613Z,34.2
2023-01-06T05:54:39.214Z,34.1
2023-01-06T05:59:47.287Z,34.1
2023-01-06T06:05:10.417Z,34.1
2023-01-06T06:10:34.245Z,34
2023-01-06T06:15:41.856Z,34
2023-01-06T06:21:04.210Z,33.9
2023-01-06T06:26:11.895Z,33.9
2023-01-06T06:31:34.980Z,33.9
2023-01-06T06:36:57.248Z,33.8
2023-01-06T06:42:20.808Z,33.8
2023-01-06T06:47:44.474Z,33.8
2023-01-06T06:53:06.757Z,33.7
2023-01-06T06:58:31.000Z,33.7
2023-01-06T07:03:55.169Z,33.6
2023-01-06T07:09:02.921Z,33.6
2023-01-06T07:14:11.717Z,33.6
2023-01-06T07:19:20.037Z,33.6
2023-01-06T07:24:43.401Z,33.5
2023-01-06T07:30:07.245Z,33.4
2023-01-06T07:35:30.722Z,29.3
2023-01-06T07:40:54.044Z,34.3
2023-01-06T07:46:18.397Z,34.1
2023-01-06T07:51:42.759Z,34.3
2023-01-06T07:56:51.295Z,40.3
2023-01-06T08:02:15.949Z,40.7
2023-01-06T08:07:40.128Z,42.4
2023-01-06T08:13:02.800Z,44.1
2023-01-06T08:18:27.868Z,45.3
2023-01-06T08:23:35.596Z,45.1
2023-01-06T08:28:59.118Z,46.8
2023-01-06T08:34:31.526Z,47.5
2023-01-06T08:39:55.329Z,45.8
2023-01-06T08:45:18.058Z,49.3
2023-01-06T08:50:43.898Z,50.4
2023-01-06T09:00:58.250Z,49.4
2023-01-06T09:11:31.782Z,50.3
2023-01-06T09:16:56.853Z,53.1
2023-01-06T09:22:21.342Z,54.4
2023-01-06T09:32:52.838Z,52.7
2023-01-06T09:38:17.739Z,55.9
2023-01-06T09:43:41.302Z,57.1
2023-01-06T09:48:49.792Z,57.3
2023-01-06T09:59:21.749Z,58.8
2023-01-06T10:04:45.828Z,59.1
2023-01-06T10:10:10.515Z,59.1
2023-01-06T10:15:18.563Z,59.1
2023-01-06T10:20:42.436Z,59.5
2023-01-06T10:26:06.866Z,59.8
2023-01-06T10:31:34.515Z,59.9
2023-01-06T10:37:00.350Z,60.3
2023-01-06T10:42:24.772Z,59.9
2023-01-06T10:47:33.539Z,53.4
2023-01-06T10:52:41.383Z,51.3
2023-01-06T10:58:06.029Z,49.1
2023-01-06T11:03:36.058Z,46.4
2023-01-06T11:08:59.444Z,52.3
2023-01-06T11:14:31.883Z,56.8
2023-01-06T11:25:05.325Z,58.4
2023-01-06T11:30:30.076Z,54.6
2023-01-06T11:41:11.470Z,49.4
2023-01-06T11:46:38.841Z,51.1
2023-01-06T11:52:03.558Z,52.1
2023-01-06T11:57:27.334Z,52.4
2023-01-06T12:02:52.161Z,52.6
2023-01-06T12:08:15.634Z,52.8
2023-01-06T12:13:44.680Z,52.2
2023-01-06T12:19:30.200Z,48.4
2023-01-06T12:24:37.997Z,49.6
2023-01-06T12:30:01.509Z,50.4
2023-01-06T12:35:25.761Z,52
2023-01-06T12:40:34.015Z,51.8
2023-01-06T12:46:03.198Z,50.7
2023-01-06T12:51:27.520Z,49.2
2023-01-06T12:57:01.267Z,49.4
2023-01-06T13:02:09.480Z,49.3
2023-01-06T13:07:33.598Z,48.3
2023-01-06T13:12:56.320Z,49.3
2023-01-06T13:18:22.159Z,48.6
2023-01-06T13:23:46.848Z,46.1
2023-01-06T13:29:09.819Z,43.1
2023-01-06T13:34:02.265Z,41.3
2023-01-06T13:39:26.266Z,40.3
2023-01-06T13:44:49.636Z,39.3
2023-01-06T13:55:06.654Z,38.2
2023-01-06T14:00:14.850Z,37.7
2023-01-06T14:05:39.598Z,37.4
2023-01-06T14:10:48.242Z,37.1
2023-01-06T14:21:19.818Z,36.7
2023-01-06T14:26:44.861Z,36.6
2023-01-06T14:32:09.569Z,36.4
2023-01-06T14:37:32.256Z,36.3
2023-01-06T14:42:56.558Z,36.2
2023-01-06T14:48:04.907Z,36.1
2023-01-06T14:53:33.814Z,36
2023-01-06T14:58:42.727Z,35.9
2023-01-06T15:03:51.410Z,35.8
2023-01-06T15:08:57.362Z,35.7
2023-01-06T15:14:32.338Z,35.5
2023-01-06T15:19:39.921Z,35.4
2023-01-06T15:24:47.052Z,35.3
2023-01-06T15:29:55.895Z,35.2
2023-01-06T15:35:04.288Z,35.1
2023-01-06T15:40:27.221Z,34.9
2023-01-06T15:45:52.555Z,34.6
2023-01-06T15:51:15.511Z,34.2
2023-01-06T15:56:22.474Z,34.1
2023-01-06T16:06:26.986Z,33.8
2023-01-06T16:11:18.746Z,33.8
2023-01-06T16:15:53.732Z,33.7
2023-01-06T16:21:18.284Z,33.6
2023-01-06T16:26:41.731Z,33.3
2023-01-06T16:31:32.806Z,33.3
2023-01-06T16:36:56.796Z,33.3
2023-01-06T16:42:04.272Z,33.3
2023-01-06T16:47:11.417Z,33.3
2023-01-06T16:52:20.500Z,33.2
2023-01-06T16:57:44.373Z,33.1
2023-01-06T17:02:52.734Z,33.1
2023-01-06T17:08:01.736Z,33.1
2023-01-06T17:13:25.004Z,33
2023-01-06T17:18:47.882Z,32.9
2023-01-06T17:23:57.000Z,32.8
2023-01-06T17:29:20.292Z,32.8
2023-01-06T17:34:12.398Z,32.7
2023-01-06T17:39:36.557Z,32.7
2023-01-06T17:44:44.366Z,32.6
2023-01-06T17:49:50.818Z,32.6
2023-01-06T18:00:06.088Z,32.6
2023-01-06T18:10:37.503Z,32.5
2023-01-06T18:16:00.963Z,32.4
2023-01-06T18:21:08.756Z,32.4
2023-01-06T18:26:18.907Z,32.4
2023-01-06T18:31:42.735Z,32.4
2023-01-06T18:36:49.914Z,32.3
2023-01-06T18:41:58.875Z,32.3
2023-01-06T18:47:07.864Z,32.3
2023-01-06T18:51:59.452Z,32.2
2023-01-06T18:57:08.368Z,32.2
2023-01-06T19:01:44.584Z,32.1
2023-01-06T19:07:09.836Z,32.1
2023-01-06T19:12:34.381Z,32.1
2023-01-06T19:17:57.632Z,32
2023-01-06T19:23:07.359Z,32
2023-01-06T19:28:03.165Z,32
2023-01-06T19:33:13.678Z,31.9
2023-01-06T19:38:29.037Z,31.9
2023-01-06T19:43:39.219Z,31.8
2023-01-06T19:49:06.848Z,31.8
2023-01-06T19:54:15.650Z,31.7
2023-01-06T19:59:28.228Z,31.7
2023-01-06T20:04:41.619Z,31.6
2023-01-06T20:09:50.857Z,31.6
2023-01-06T20:15:00.607Z,31.6
2023-01-06T20:25:23.058Z,31.5
2023-01-06T20:30:52.344Z,31.5
2023-01-06T20:35:33.795Z,31.4
2023-01-06T20:40:58.298Z,31.4
2023-01-06T20:46:24.017Z,31.4
2023-01-06T20:51:31.224Z,31.5
2023-01-06T20:56:54.067Z,31.6
2023-01-06T21:02:03.954Z,31.6
2023-01-06T21:07:12.238Z,31.7
2023-01-06T21:12:19.734Z,31.7
2023-01-06T21:22:20.060Z,31.5
2023-01-06T21:27:43.279Z,31.4
2023-01-06T21:33:07.856Z,31.3
2023-01-06T21:43:05.815Z,31.3
2023-01-06T21:48:00.600Z,31.2
2023-01-06T21:53:23.883Z,31.2
2023-01-06T21:58:30.692Z,31.1
2023-01-06T22:03:39.474Z,31.1
2023-01-06T22:09:02.862Z,31.1
2023-01-06T22:14:10.276Z,31.1
2023-01-06T22:19:33.231Z,31
2023-01-06T22:29:33.189Z,30.9
2023-01-06T22:40:04.853Z,30.9
2023-01-06T22:45:12.151Z,30.9
2023-01-06T22:55:27.714Z,30.8
2023-01-06T23:00:35.556Z,30.7
2023-01-06T23:05:44.889Z,30.7
2023-01-06T23:15:55.681Z,30.6
2023-01-06T23:21:21.436Z,30.6
2023-01-06T23:26:29.701Z,30.6
2023-01-06T23:36:44.647Z,30.5
2023-01-06T23:42:08.128Z,30.5
2023-01-06T23:47:09.815Z,30.4
2023-01-06T23:52:17.001Z,30.4
2023-01-06T23:57:41.140Z,30.4
